Kezdőlap
METAR-TAF:

METAR-TAF

Repülőterek :

Szeged, Magyarország

Szegedi repülőtér

földrajzi szélesség: 46-15N, földrajzi hosszúság: 020-06E, magasság: 82 m

Jelenlegi meteorológiai megfigyelések

A jelentés 10 órával és 43 perccel ezelõtt készült, 14:45 UTC
Észak-északnyugati szél 2 kt
Hőmérséklet 0°C
Páratartalom 100%
Légköri nyomás 1013 hPa
Látótávolság: 1500 m
Szakadozott felhőzet 600 lábon
enyhe esõ, hó

METAR: LHUD 201445Z 33002KT 1500 -RASN BKN006 00/00 Q1013

Idő: 02:28 (01:28 UTC)


TAF: hiányzik

Meteorológiai megfigyelések és előrejelzések több, mint 4000 repülőtéren (METAR és TAF jelentéseket).

A térképen piros és sárga pontok jelzik az elérhető meteorológiai állomásokat.

Mozgassa az egeret a pont fölött, hogy megjelenjen az állomás neve.

Azután kattintson az időjárási megfigyelések és előrejelzések megtekintéséhez.

A térkép megváltoztatása: kattintson a fekete keresztel jelölt zöld gombra ráközelítéshez, a vonallal jelölt zöld gombra távolításhoz, vagy a zöld nyilakra a szomszédos térképek eléréséhez.


METAR-TAF: